Aviation Digital Data Service (ADDS)

Output produced by METARs form (1951 UTC 29 August 2016)
found at http://aviationweather.gov/adds/metars/
 
KCLE 291730Z 2918/3024 02010KT P6SM SKC 
     FM300200 VRB03KT P6SM SCT250 
     FM301600 36006KT P6SM FEW035